Time;durP1;ratioP1;P1;durP2;ratioP2;P2;SDS_P1;SDS_P2;PMS_P1;PMS_P2;Temp;Humidity;BMP_temperature;BMP_pressure;BME280_temperature;BME280_humidity;BME280_pressure;Samples;Min_cycle;Max_cycle;Signal;HPM_P1;HPM_P2
2021/01/10 00:00:09;;;;;;;29.60;18.27;;;3.90;99.90;;;;;;5032269;28;20544;-74
2021/01/10 00:02:35;;;;;;;26.47;19.10;;;3.90;99.90;;;;;;5066930;28;20271;-74
2021/01/10 00:05:02;;;;;;;28.80;17.27;;;3.90;99.90;;;;;;5032730;28;20501;-75
2021/01/10 00:07:28;;;;;;;24.40;18.17;;;3.90;99.90;;;;;;5034630;28;20179;-74
2021/01/10 00:09:54;;;;;;;33.80;21.03;;;3.90;99.90;;;;;;5066233;28;20855;-74
2021/01/10 00:12:26;;;;;;;26.43;17.67;;;3.90;99.90;;;;;;5034399;28;20180;-73
2021/01/10 00:14:53;;;;;;;27.37;18.00;;;3.80;99.90;;;;;;5028321;28;20195;-74
2021/01/10 00:17:19;;;;;;;31.33;18.90;;;3.60;99.90;;;;;;5029348;28;20454;-73
2021/01/10 00:19:46;;;;;;;35.50;19.57;;;3.40;99.90;;;;;;5034601;28;20465;-73
2021/01/10 00:22:19;;;;;;;28.27;18.07;;;3.20;99.90;;;;;;5034686;28;20425;-73
2021/01/10 00:24:46;;;;;;;32.30;22.37;;;3.10;99.90;;;;;;5032337;28;20852;-74
2021/01/10 00:27:13;;;;;;;37.33;22.77;;;3.20;99.90;;;;;;5026806;28;20471;-73
2021/01/10 00:29:41;;;;;;;34.73;21.30;;;3.10;99.90;;;;;;5032272;28;20442;-74
2021/01/10 00:32:07;;;;;;;33.93;20.73;;;3.20;99.90;;;;;;5033419;28;20457;-73
2021/01/10 00:34:33;;;;;;;32.00;19.40;;;3.20;99.90;;;;;;5033232;28;20817;-74
2021/01/10 00:36:58;;;;;;;37.00;20.40;;;3.40;99.90;;;;;;5025290;28;20180;-74
2021/01/10 00:39:24;;;;;;;31.30;20.03;;;3.50;99.90;;;;;;5027352;28;20214;-74
2021/01/10 00:41:50;;;;;;;31.77;19.20;;;3.50;99.90;;;;;;5030091;28;20174;-73
2021/01/10 00:44:16;;;;;;;30.53;19.03;;;3.50;99.90;;;;;;5033943;28;20438;-74
2021/01/10 00:46:42;;;;;;;30.43;17.97;;;3.60;99.90;;;;;;5033888;28;20187;-74
2021/01/10 00:49:07;;;;;;;27.03;17.20;;;3.50;99.90;;;;;;5033436;28;20433;-74
2021/01/10 00:51:34;;;;;;;29.63;17.80;;;3.60;99.90;;;;;;5032954;28;20199;-74
2021/01/10 00:53:59;;;;;;;29.03;17.77;;;3.60;99.90;;;;;;5034038;28;20442;-73
2021/01/10 00:56:25;;;;;;;31.30;17.70;;;3.60;99.90;;;;;;5031635;28;20253;-74
2021/01/10 00:58:51;;;;;;;28.60;17.17;;;3.60;99.90;;;;;;5038591;28;20286;-74
2021/01/10 01:01:16;;;;;;;31.77;17.67;;;3.60;99.90;;;;;;5038802;28;20178;-74
2021/01/10 01:03:42;;;;;;;29.90;19.40;;;3.60;99.90;;;;;;5038417;28;20564;-74
2021/01/10 01:06:11;;;;;;;28.53;17.90;;;3.60;99.90;;;;;;5034111;28;20180;-74
2021/01/10 01:08:37;;;;;;;29.97;17.50;;;3.70;99.90;;;;;;5034020;28;20671;-74
2021/01/10 01:11:03;;;;;;;26.80;16.37;;;3.60;99.90;;;;;;5033842;28;20446;-74
2021/01/10 01:13:29;;;;;;;27.07;16.47;;;3.60;99.90;;;;;;5039398;28;20600;-74
2021/01/10 01:15:55;;;;;;;23.87;17.80;;;3.60;99.90;;;;;;5039348;28;20465;-74
2021/01/10 01:18:20;;;;;;;31.00;18.37;;;3.60;99.90;;;;;;5033281;28;20970;-73
2021/01/10 01:20:46;;;;;;;24.47;18.03;;;3.50;99.90;;;;;;5033214;28;20175;-73
2021/01/10 01:23:12;;;;;;;26.53;17.87;;;3.50;99.90;;;;;;5033473;28;20632;-74
2021/01/10 01:25:38;;;;;;;31.30;17.60;;;3.50;99.90;;;;;;5032125;28;20410;-73
2021/01/10 01:28:04;;;;;;;32.87;17.80;;;3.40;99.90;;;;;;5033363;28;20369;-73
2021/01/10 01:30:30;;;;;;;33.23;19.37;;;3.40;99.90;;;;;;5033021;28;20578;-75
2021/01/10 01:32:56;;;;;;;29.10;17.73;;;3.40;99.90;;;;;;5065305;28;20479;-74
2021/01/10 01:35:21;;;;;;;29.93;17.80;;;3.40;99.90;;;;;;5033264;28;20199;-73
2021/01/10 01:37:47;;;;;;;28.40;17.03;;;3.40;99.90;;;;;;5032466;28;20253;-74
2021/01/10 01:40:13;;;;;;;32.40;18.97;;;3.40;99.90;;;;;;5033114;28;20648;-73
2021/01/10 01:42:38;;;;;;;34.10;20.60;;;3.40;99.90;;;;;;5064921;28;20167;-73
2021/01/10 01:45:06;;;;;;;31.43;18.83;;;3.30;99.90;;;;;;5032756;28;20179;-74
2021/01/10 01:47:33;;;;;;;35.53;20.17;;;3.40;99.90;;;;;;5032618;28;20186;-73
2021/01/10 01:50:00;;;;;;;27.03;19.00;;;3.40;99.90;;;;;;5038812;28;20436;-73
2021/01/10 01:52:26;;;;;;;28.23;18.03;;;3.30;99.90;;;;;;5042524;28;20418;-74
2021/01/10 01:54:53;;;;;;;30.73;18.83;;;3.40;99.90;;;;;;5032491;28;20552;-73
2021/01/10 01:57:19;;;;;;;31.13;20.00;;;3.40;99.90;;;;;;5032543;28;20265;-73
2021/01/10 01:59:45;;;;;;;31.13;18.80;;;3.40;99.90;;;;;;5032738;28;20541;-73
2021/01/10 02:02:11;;;;;;;31.77;19.27;;;3.30;99.90;;;;;;5032291;28;20254;-74
2021/01/10 02:05:07;;;;;;;32.47;19.97;;;3.40;99.90;;;;;;5031243;28;20541;-73
2021/01/10 02:07:53;;;;;;;33.63;18.10;;;3.40;99.90;;;;;;5032477;28;20259;-73
2021/01/10 02:10:24;;;;;;;25.80;16.50;;;3.40;99.90;;;;;;5032109;28;20418;-76
2021/01/10 02:12:58;;;;;;;31.20;18.77;;;3.50;99.90;;;;;;5030496;28;20440;-74
2021/01/10 02:15:25;;;;;;;28.13;17.90;;;3.50;99.90;;;;;;5032628;28;21011;-74
2021/01/10 02:17:53;;;;;;;23.90;16.73;;;3.50;99.90;;;;;;5032348;28;20413;-73
2021/01/10 02:20:25;;;;;;;31.20;17.97;;;3.50;99.90;;;;;;5031688;28;20410;-73
2021/01/10 02:22:54;;;;;;;33.03;18.80;;;3.40;99.90;;;;;;5064318;28;20430;-73
2021/01/10 02:25:22;;;;;;;33.70;19.40;;;3.40;99.90;;;;;;5032300;28;20445;-73
2021/01/10 02:27:48;;;;;;;27.10;17.50;;;3.40;99.90;;;;;;5032204;28;20426;-75
2021/01/10 02:30:15;;;;;;;33.03;18.83;;;3.40;99.90;;;;;;5027769;28;20517;-74
2021/01/10 02:32:45;;;;;;;33.60;18.40;;;3.50;99.90;;;;;;5031542;28;20422;-73
2021/01/10 02:35:12;;;;;;;26.37;18.30;;;3.50;99.90;;;;;;5032135;28;20402;-74
2021/01/10 02:38:15;;;;;;;33.10;19.83;;;3.50;99.90;;;;;;5031782;28;20472;-73
2021/01/10 02:40:49;;;;;;;30.73;18.77;;;3.50;99.90;;;;;;5031680;28;20414;-73
2021/01/10 02:43:25;;;;;;;29.70;18.23;;;3.50;99.90;;;;;;5031653;28;20495;-74
2021/01/10 02:45:55;;;;;;;30.83;18.87;;;3.30;99.90;;;;;;5032062;28;20465;-74
2021/01/10 02:48:21;;;;;;;29.97;19.80;;;3.30;99.90;;;;;;5031924;28;20434;-73
2021/01/10 02:50:47;;;;;;;31.00;18.53;;;3.30;99.90;;;;;;5031614;28;20444;-73
2021/01/10 02:53:12;;;;;;;35.37;19.03;;;3.40;99.90;;;;;;5028071;28;20278;-74
2021/01/10 02:55:38;;;;;;;35.77;18.33;;;3.40;99.90;;;;;;5031667;28;20730;-74
2021/01/10 02:58:19;;;;;;;32.33;20.13;;;3.40;99.90;;;;;;5036931;28;20574;-75
2021/01/10 03:00:48;;;;;;;34.63;19.93;;;3.40;99.90;;;;;;5039209;28;20692;-73
2021/01/10 03:03:14;;;;;;;36.20;18.87;;;3.40;99.90;;;;;;5063414;28;20445;-73
2021/01/10 03:05:41;;;;;;;33.70;18.97;;;3.40;99.90;;;;;;5031081;28;20418;-73
2021/01/10 03:08:07;;;;;;;32.83;19.30;;;3.50;99.90;;;;;;5031774;28;20454;-73
2021/01/10 03:10:33;;;;;;;31.20;19.63;;;3.50;99.90;;;;;;5029984;28;20428;-74
2021/01/10 03:12:59;;;;;;;33.00;18.50;;;3.40;99.90;;;;;;5031042;28;20252;-74
2021/01/10 03:15:25;;;;;;;31.87;19.27;;;3.30;99.90;;;;;;5031618;28;20505;-74
2021/01/10 03:17:51;;;;;;;33.07;20.30;;;3.40;99.90;;;;;;5031540;28;20935;-73
2021/01/10 03:20:19;;;;;;;28.07;18.70;;;3.40;99.90;;;;;;5031481;28;20180;-73
2021/01/10 03:22:46;;;;;;;34.30;19.03;;;3.40;99.90;;;;;;5031984;28;20759;-74
2021/01/10 03:25:16;;;;;;;31.70;19.77;;;3.50;99.90;;;;;;5035677;28;20976;-74
2021/01/10 03:27:42;;;;;;;29.93;19.87;;;3.50;99.90;;;;;;5035541;28;20805;-74
2021/01/10 03:30:10;;;;;;;40.73;19.97;;;3.40;99.90;;;;;;5035532;28;20466;-74
2021/01/10 03:32:36;;;;;;;31.97;20.17;;;3.50;99.90;;;;;;5054267;28;20170;-74
2021/01/10 03:35:05;;;;;;;36.83;18.90;;;3.40;99.90;;;;;;5045729;28;20947;-74
2021/01/10 03:37:30;;;;;;;32.47;18.70;;;3.40;99.90;;;;;;5036659;28;20412;-74
2021/01/10 03:39:56;;;;;;;37.47;19.83;;;3.40;99.90;;;;;;5035203;28;20460;-74
2021/01/10 03:42:21;;;;;;;28.23;18.33;;;3.40;99.90;;;;;;5035055;28;20579;-74
2021/01/10 03:44:47;;;;;;;33.57;19.00;;;3.20;99.90;;;;;;5035215;28;20198;-74
2021/01/10 03:47:13;;;;;;;27.17;18.43;;;3.30;99.90;;;;;;5035210;28;20190;-74
2021/01/10 03:49:39;;;;;;;24.77;17.10;;;3.30;99.90;;;;;;5033961;28;20426;-73
2021/01/10 03:52:04;;;;;;;25.80;16.80;;;3.20;99.90;;;;;;5035284;28;20557;-73
2021/01/10 03:54:30;;;;;;;30.30;18.17;;;3.20;99.90;;;;;;5035126;28;20209;-74
2021/01/10 03:56:56;;;;;;;33.30;18.77;;;3.10;99.90;;;;;;5035021;28;20194;-73
2021/01/10 03:59:21;;;;;;;29.17;17.33;;;3.10;99.90;;;;;;5034870;28;20210;-74
2021/01/10 04:01:47;;;;;;;30.00;16.80;;;3.10;99.90;;;;;;5034611;28;20179;-73
2021/01/10 04:04:13;;;;;;;32.10;16.27;;;3.10;99.90;;;;;;5034823;28;20202;-74
2021/01/10 04:06:38;;;;;;;28.57;17.47;;;3.10;99.90;;;;;;5034377;28;20255;-73
2021/01/10 04:09:04;;;;;;;26.30;17.57;;;3.00;99.90;;;;;;5034531;28;20183;-74
2021/01/10 04:11:30;;;;;;;31.07;16.00;;;3.00;99.90;;;;;;5033394;28;20183;-73
2021/01/10 04:13:55;;;;;;;27.93;18.17;;;2.90;99.90;;;;;;5034329;28;20448;-74
2021/01/10 04:16:21;;;;;;;30.53;18.40;;;2.90;99.90;;;;;;5034531;28;20175;-73
2021/01/10 04:18:47;;;;;;;30.40;17.40;;;2.90;99.90;;;;;;5034639;28;20199;-73
2021/01/10 04:21:12;;;;;;;30.13;17.10;;;3.00;99.90;;;;;;5034208;28;20251;-74
2021/01/10 04:23:38;;;;;;;31.90;18.07;;;3.00;99.90;;;;;;5034042;28;20242;-74
2021/01/10 04:26:04;;;;;;;32.20;20.00;;;2.90;99.90;;;;;;5034594;28;20174;-73
2021/01/10 04:28:30;;;;;;;30.17;17.90;;;2.70;99.90;;;;;;5032935;28;20175;-73
2021/01/10 04:30:56;;;;;;;28.80;20.33;;;2.40;99.90;;;;;;5034425;28;20457;-73
2021/01/10 04:33:22;;;;;;;31.60;18.70;;;2.50;99.90;;;;;;5034363;28;20799;-73
2021/01/10 04:35:48;;;;;;;30.20;19.10;;;2.70;99.90;;;;;;5033518;28;20175;-73
2021/01/10 04:38:16;;;;;;;28.33;18.70;;;2.80;99.90;;;;;;5033869;28;20462;-73
2021/01/10 04:40:41;;;;;;;29.97;19.27;;;2.90;99.90;;;;;;5034016;28;20560;-74
2021/01/10 04:43:07;;;;;;;30.60;20.43;;;2.90;99.90;;;;;;5034404;28;20951;-74
2021/01/10 04:45:33;;;;;;;34.60;18.73;;;3.00;99.90;;;;;;5034183;28;20190;-74
2021/01/10 04:47:59;;;;;;;26.90;17.33;;;3.00;99.90;;;;;;5033851;28;20186;-73
2021/01/10 04:50:26;;;;;;;28.30;18.20;;;3.10;99.90;;;;;;5033900;28;20426;-73
2021/01/10 04:52:58;;;;;;;26.50;17.80;;;3.10;99.90;;;;;;5033903;28;20557;-74
2021/01/10 04:55:24;;;;;;;28.30;17.80;;;3.10;99.90;;;;;;5034218;28;20441;-74
2021/01/10 04:58:00;;;;;;;25.90;17.23;;;3.10;99.90;;;;;;5033856;28;20945;-73
2021/01/10 05:00:26;;;;;;;33.53;18.10;;;3.10;99.90;;;;;;5032228;28;20420;-73
2021/01/10 05:03:01;;;;;;;24.80;16.23;;;3.10;99.90;;;;;;5033827;28;21199;-73
2021/01/10 05:05:27;;;;;;;26.37;17.07;;;3.20;99.90;;;;;;5033500;28;20410;-73
2021/01/10 05:07:53;;;;;;;26.00;17.13;;;3.20;99.90;;;;;;5033380;28;20501;-73
2021/01/10 05:10:19;;;;;;;29.53;17.57;;;3.20;99.90;;;;;;5032380;28;20843;-75
2021/01/10 05:12:44;;;;;;;26.30;17.83;;;3.20;99.90;;;;;;5033795;28;20171;-74
2021/01/10 05:15:11;;;;;;;26.70;16.67;;;3.20;99.90;;;;;;5033856;28;20183;-74
2021/01/10 05:17:36;;;;;;;23.67;16.07;;;3.20;99.90;;;;;;5033482;28;20226;-73
2021/01/10 05:20:08;;;;;;;29.50;18.60;;;3.30;99.90;;;;;;5033451;28;20449;-74
2021/01/10 05:22:33;;;;;;;27.70;15.53;;;3.20;99.90;;;;;;5033327;28;20171;-74
2021/01/10 05:25:14;;;;;;;29.57;17.30;;;3.30;99.90;;;;;;5033576;28;20414;-74
2021/01/10 05:27:40;;;;;;;29.60;16.00;;;3.30;99.90;;;;;;5033596;28;20164;-74
2021/01/10 05:30:06;;;;;;;30.90;17.00;;;3.20;99.90;;;;;;5033362;28;20452;-73
2021/01/10 05:32:32;;;;;;;23.50;15.63;;;3.00;99.90;;;;;;5033002;28;20229;-74
2021/01/10 05:34:59;;;;;;;28.63;17.73;;;3.00;99.90;;;;;;5032948;28;20881;-74
2021/01/10 05:37:25;;;;;;;26.07;17.50;;;3.10;99.90;;;;;;5033052;28;20179;-74
2021/01/10 05:39:50;;;;;;;29.20;18.17;;;2.90;99.90;;;;;;5033159;28;20454;-74
2021/01/10 05:42:17;;;;;;;23.07;16.80;;;2.90;99.90;;;;;;5032946;28;20194;-74
2021/01/10 05:44:43;;;;;;;30.00;19.23;;;2.90;99.90;;;;;;5015750;28;20195;-74
2021/01/10 05:47:11;;;;;;;26.77;16.10;;;2.90;99.90;;;;;;5031830;28;20469;-74
2021/01/10 05:49:53;;;;;;;31.80;17.70;;;2.80;99.90;;;;;;5032828;28;20190;-74
2021/01/10 05:52:21;;;;;;;24.20;17.50;;;2.80;99.90;;;;;;5031271;28;20943;-73
2021/01/10 05:54:54;;;;;;;29.00;16.37;;;2.80;99.90;;;;;;5032776;28;20446;-73
2021/01/10 05:57:28;;;;;;;27.40;17.10;;;2.80;99.90;;;;;;5032780;28;20433;-74
2021/01/10 05:59:55;;;;;;;27.93;17.60;;;2.80;99.90;;;;;;5032773;28;20815;-75
2021/01/10 06:02:31;;;;;;;22.40;16.53;;;2.80;99.90;;;;;;5032554;28;20414;-74
2021/01/10 06:05:20;;;;;;;27.27;17.13;;;2.80;99.90;;;;;;5032710;28;20422;-75
2021/01/10 06:07:48;;;;;;;28.40;17.33;;;2.70;99.90;;;;;;5033276;28;21124;-74
2021/01/10 06:10:27;;;;;;;33.53;18.40;;;2.60;99.90;;;;;;5032638;28;20452;-74
2021/01/10 06:13:02;;;;;;;29.57;17.50;;;2.50;99.90;;;;;;5031336;28;20471;-74
2021/01/10 06:15:31;;;;;;;24.97;17.57;;;2.40;99.90;;;;;;5031673;28;20460;-74
2021/01/10 06:18:01;;;;;;;26.80;17.07;;;2.50;99.90;;;;;;5031010;28;20422;-74
2021/01/10 06:20:31;;;;;;;33.80;19.60;;;2.40;99.90;;;;;;5031938;28;20432;-73
2021/01/10 06:23:02;;;;;;;31.30;20.10;;;2.50;99.90;;;;;;5031558;28;20962;-74
2021/01/10 06:25:30;;;;;;;35.07;18.40;;;2.50;99.90;;;;;;5032270;28;20424;-73
2021/01/10 06:28:07;;;;;;;36.97;18.50;;;2.60;99.90;;;;;;5032262;28;20434;-73
2021/01/10 06:30:34;;;;;;;28.00;20.27;;;2.60;99.90;;;;;;5031962;28;20766;-74
2021/01/10 06:33:10;;;;;;;25.03;16.70;;;2.60;99.90;;;;;;5031957;28;20461;-74
2021/01/10 06:35:41;;;;;;;38.20;19.20;;;2.50;99.90;;;;;;5032329;28;20740;-74
2021/01/10 06:38:09;;;;;;;34.87;18.80;;;2.60;99.90;;;;;;5032456;28;20441;-74
2021/01/10 06:40:38;;;;;;;29.63;18.50;;;2.60;99.90;;;;;;5031541;28;20421;-74
2021/01/10 06:43:05;;;;;;;31.00;18.00;;;2.60;99.90;;;;;;5032307;28;20445;-73
2021/01/10 06:45:37;;;;;;;28.17;17.10;;;2.60;99.90;;;;;;5030950;28;20528;-74
2021/01/10 06:48:06;;;;;;;32.17;18.50;;;2.60;99.90;;;;;;5033413;28;20569;-74
2021/01/10 06:50:32;;;;;;;29.27;18.97;;;2.60;99.90;;;;;;5032185;28;20831;-74
2021/01/10 06:53:03;;;;;;;28.53;18.93;;;2.60;99.90;;;;;;5032089;28;20438;-74
2021/01/10 06:55:29;;;;;;;22.97;14.87;;;2.60;99.90;;;;;;5032046;28;20749;-73
2021/01/10 06:57:55;;;;;;;26.13;18.70;;;2.60;99.90;;;;;;5031336;28;20468;-74
2021/01/10 07:00:21;;;;;;;26.33;16.03;;;2.60;99.90;;;;;;5031297;28;20425;-73
2021/01/10 07:03:06;;;;;;;26.57;18.07;;;2.60;99.90;;;;;;5031253;28;20190;-73
2021/01/10 07:05:58;;;;;;;38.43;19.47;;;2.50;99.90;;;;;;5031587;28;20421;-73
2021/01/10 07:08:53;;;;;;;34.87;20.27;;;2.50;99.90;;;;;;5028839;28;20441;-74
2021/01/10 07:11:22;;;;;;;30.50;19.10;;;2.50;99.90;;;;;;5029202;28;20567;-73
2021/01/10 07:13:48;;;;;;;33.47;19.83;;;2.40;99.90;;;;;;5031424;28;20445;-74
2021/01/10 07:16:25;;;;;;;27.10;18.07;;;2.40;99.90;;;;;;5030065;28;20923;-74
2021/01/10 07:18:55;;;;;;;31.90;20.17;;;2.40;99.90;;;;;;5031156;28;20454;-74
2021/01/10 07:21:38;;;;;;;29.87;19.37;;;2.50;99.90;;;;;;5063798;28;20413;-74
2021/01/10 07:24:13;;;;;;;35.80;22.40;;;2.40;99.90;;;;;;5031726;28;20520;-73
2021/01/10 07:26:49;;;;;;;34.37;21.77;;;2.30;99.90;;;;;;5030463;28;20428;-73
2021/01/10 07:29:27;;;;;;;36.97;22.07;;;2.30;99.90;;;;;;5030948;28;20410;-73
2021/01/10 07:32:06;;;;;;;33.43;19.87;;;2.40;99.90;;;;;;5030497;28;20414;-74
2021/01/10 07:34:37;;;;;;;42.53;23.63;;;2.40;99.90;;;;;;5030972;28;20532;-73
2021/01/10 07:37:04;;;;;;;38.90;23.53;;;2.50;99.90;;;;;;5029820;28;20541;-73
2021/01/10 07:39:32;;;;;;;46.83;26.30;;;2.50;99.90;;;;;;5030757;28;20461;-74
2021/01/10 07:42:16;;;;;;;43.93;24.40;;;2.40;99.90;;;;;;5031462;28;20441;-74
2021/01/10 07:45:20;;;;;;;42.00;24.07;;;2.40;99.90;;;;;;5030750;28;20967;-74
2021/01/10 07:47:51;;;;;;;51.70;25.90;;;2.40;99.90;;;;;;5029777;28;20421;-73
2021/01/10 07:50:16;;;;;;;44.90;24.43;;;2.40;99.90;;;;;;5030175;28;20419;-74
2021/01/10 07:52:42;;;;;;;41.87;23.10;;;2.40;99.90;;;;;;5029104;28;20414;-73
2021/01/10 07:55:19;;;;;;;37.87;22.57;;;2.40;99.90;;;;;;5030221;28;20576;-73
2021/01/10 07:57:45;;;;;;;38.00;21.97;;;2.50;99.90;;;;;;5030531;28;20175;-73
2021/01/10 08:00:31;;;;;;;40.37;22.77;;;2.50;99.90;;;;;;5030374;28;20459;-73
2021/01/10 08:03:09;;;;;;;34.43;22.20;;;2.50;99.90;;;;;;5030822;28;20949;-74
2021/01/10 08:05:42;;;;;;;38.87;23.40;;;2.60;99.90;;;;;;5031193;28;20416;-74
2021/01/10 08:08:13;;;;;;;37.97;22.23;;;2.60;99.90;;;;;;5031261;28;20497;-74
2021/01/10 08:10:52;;;;;;;37.87;21.10;;;2.60;99.90;;;;;;5032713;28;20421;-73
2021/01/10 08:13:27;;;;;;;35.60;20.43;;;2.50;99.90;;;;;;5034441;28;20449;-73
2021/01/10 08:15:53;;;;;;;34.67;19.90;;;2.60;99.90;;;;;;5032669;28;20417;-73
2021/01/10 08:18:20;;;;;;;33.40;22.00;;;2.60;99.90;;;;;;5066402;28;20457;-75
2021/01/10 08:20:52;;;;;;;40.17;21.47;;;2.70;99.90;;;;;;5034611;28;20472;-74
2021/01/10 08:23:19;;;;;;;40.37;22.07;;;2.70;99.90;;;;;;5034400;28;20473;-75
2021/01/10 08:25:45;;;;;;;34.50;21.47;;;2.70;99.90;;;;;;5034734;28;20958;-74
2021/01/10 08:28:20;;;;;;;35.97;21.10;;;2.80;99.90;;;;;;5034462;28;20449;-74
2021/01/10 08:30:46;;;;;;;39.17;22.67;;;2.80;99.90;;;;;;5034073;28;20514;-74
2021/01/10 08:33:21;;;;;;;39.33;21.80;;;2.90;99.90;;;;;;5034470;28;20480;-74
2021/01/10 08:35:48;;;;;;;35.27;21.47;;;3.00;99.90;;;;;;5034548;28;20432;-75
2021/01/10 08:38:14;;;;;;;42.57;24.63;;;2.90;99.90;;;;;;5034189;28;20454;-75
2021/01/10 08:40:39;;;;;;;36.70;22.50;;;2.90;99.90;;;;;;5033470;28;20429;-73
2021/01/10 08:43:05;;;;;;;39.93;23.90;;;2.90;99.90;;;;;;5034471;28;20443;-73
2021/01/10 08:45:31;;;;;;;38.77;23.10;;;2.80;99.90;;;;;;5031751;28;20182;-73
2021/01/10 08:48:05;;;;;;;31.10;20.53;;;2.70;99.90;;;;;;5018367;28;20430;-73
2021/01/10 08:50:39;;;;;;;40.00;24.73;;;2.80;99.90;;;;;;5033687;28;20481;-74
2021/01/10 08:53:05;;;;;;;34.80;22.13;;;2.90;99.90;;;;;;5034315;28;20488;-74
2021/01/10 08:55:41;;;;;;;42.27;25.63;;;2.90;99.90;;;;;;5033830;28;20851;-73
2021/01/10 08:58:09;;;;;;;34.33;21.87;;;3.00;99.90;;;;;;5034222;28;20984;-74
2021/01/10 09:00:39;;;;;;;36.97;24.30;;;3.10;99.90;;;;;;5033482;28;20433;-74
2021/01/10 09:03:16;;;;;;;34.43;22.07;;;3.20;99.90;;;;;;5033772;28;20947;-74
2021/01/10 09:05:47;;;;;;;47.63;24.27;;;3.20;99.90;;;;;;5030138;28;20422;-74
2021/01/10 09:08:30;;;;;;;40.43;26.07;;;3.10;99.90;;;;;;5032745;28;20441;-74
2021/01/10 09:11:05;;;;;;;38.50;22.50;;;3.20;99.90;;;;;;5033682;28;20422;-74
2021/01/10 09:13:33;;;;;;;32.93;19.47;;;3.30;99.90;;;;;;5033815;28;20449;-74
2021/01/10 09:16:03;;;;;;;31.57;20.60;;;3.30;99.90;;;;;;5032982;28;20456;-74
2021/01/10 09:18:33;;;;;;;36.57;22.13;;;3.30;99.90;;;;;;5033460;28;20457;-74
2021/01/10 09:21:00;;;;;;;34.90;22.37;;;3.40;99.90;;;;;;5032522;28;20501;-73
2021/01/10 09:23:27;;;;;;;41.10;21.30;;;3.40;99.90;;;;;;5033231;28;20437;-74
2021/01/10 09:25:53;;;;;;;32.17;21.90;;;3.40;99.90;;;;;;5033343;28;20496;-74
2021/01/10 09:28:21;;;;;;;32.47;21.33;;;3.50;99.90;;;;;;5029635;28;20452;-74
2021/01/10 09:30:51;;;;;;;33.47;21.90;;;3.40;99.90;;;;;;5032382;28;20242;-74
2021/01/10 09:33:28;;;;;;;40.60;22.67;;;3.20;99.90;;;;;;5033401;28;20500;-73
2021/01/10 09:35:55;;;;;;;37.43;21.73;;;3.10;99.90;;;;;;5030851;28;20436;-73
2021/01/10 09:38:23;;;;;;;36.20;21.80;;;3.30;99.90;;;;;;5032926;28;20489;-73
2021/01/10 09:41:01;;;;;;;35.87;22.60;;;3.30;99.90;;;;;;5032980;28;20418;-74
2021/01/10 09:43:55;;;;;;;32.70;21.87;;;3.30;99.90;;;;;;5033196;28;20492;-74
2021/01/10 09:46:31;;;;;;;27.97;17.97;;;3.30;99.90;;;;;;5032335;28;20427;-74
2021/01/10 09:49:21;;;;;;;33.50;20.07;;;3.30;99.90;;;;;;5033012;28;20430;-74
2021/01/10 09:51:47;;;;;;;35.80;21.70;;;3.30;99.90;;;;;;5033818;28;20517;-74
2021/01/10 09:54:16;;;;;;;40.53;21.93;;;3.30;99.90;;;;;;5033178;28;20469;-74
2021/01/10 09:56:48;;;;;;;41.30;26.17;;;3.30;99.90;;;;;;5044749;28;20183;-73
2021/01/10 09:59:32;;;;;;;37.67;21.90;;;3.40;99.90;;;;;;5031384;28;20454;-74
2021/01/10 10:02:09;;;;;;;37.03;21.43;;;3.30;99.90;;;;;;5032719;28;20479;-74
2021/01/10 10:04:35;;;;;;;37.20;22.93;;;3.30;99.90;;;;;;5032573;28;20461;-73
2021/01/10 10:07:00;;;;;;;37.43;23.87;;;3.40;99.90;;;;;;5032697;28;20997;-74
2021/01/10 10:09:50;;;;;;;35.07;22.30;;;3.40;99.90;;;;;;5033179;28;20421;-74
2021/01/10 10:12:16;;;;;;;39.33;20.83;;;3.40;99.90;;;;;;5031908;28;20172;-73
2021/01/10 10:14:52;;;;;;;42.20;24.33;;;3.60;99.90;;;;;;5032291;28;20440;-73
2021/01/10 10:17:20;;;;;;;35.57;21.90;;;3.60;99.90;;;;;;5031958;28;20422;-73
2021/01/10 10:19:46;;;;;;;36.37;23.50;;;3.40;99.90;;;;;;5024350;28;20481;-74
2021/01/10 10:22:25;;;;;;;36.63;22.97;;;3.40;99.90;;;;;;5031566;28;21004;-73
2021/01/10 10:24:52;;;;;;;41.33;22.27;;;3.40;99.90;;;;;;5031802;28;20441;-73
2021/01/10 10:27:18;;;;;;;39.53;22.30;;;3.50;99.90;;;;;;5031990;28;20429;-73
2021/01/10 10:29:44;;;;;;;32.13;21.70;;;3.50;99.90;;;;;;5031570;28;20425;-73
2021/01/10 10:32:11;;;;;;;39.90;21.90;;;3.50;99.90;;;;;;5031341;28;20476;-73
2021/01/10 10:34:36;;;;;;;36.10;22.70;;;3.40;99.90;;;;;;5031183;28;20291;-73
2021/01/10 10:37:03;;;;;;;43.93;22.50;;;3.50;99.90;;;;;;5032223;28;20426;-73
2021/01/10 10:39:29;;;;;;;40.67;23.03;;;3.50;99.90;;;;;;5030382;28;20195;-72
2021/01/10 10:41:54;;;;;;;40.20;24.20;;;3.40;99.90;;;;;;5031951;28;20769;-74
2021/01/10 10:44:20;;;;;;;33.27;21.90;;;3.40;99.90;;;;;;5031243;28;20191;-73
2021/01/10 10:46:46;;;;;;;43.60;24.63;;;3.50;99.90;;;;;;5030113;28;20187;-73
2021/01/10 10:49:12;;;;;;;42.17;24.97;;;3.70;99.90;;;;;;5031521;28;20559;-74
2021/01/10 10:51:38;;;;;;;44.80;22.77;;;3.90;99.90;;;;;;5030007;28;20596;-73
2021/01/10 10:54:03;;;;;;;41.27;23.23;;;3.90;99.90;;;;;;5027968;28;20450;-73
2021/01/10 10:56:39;;;;;;;38.00;23.90;;;3.60;99.90;;;;;;5031695;28;20202;-73
2021/01/10 10:59:05;;;;;;;50.27;30.87;;;3.70;99.90;;;;;;5031591;28;20199;-74
2021/01/10 11:01:42;;;;;;;46.27;25.07;;;3.80;99.90;;;;;;5031370;28;20544;-74
2021/01/10 11:04:08;;;;;;;41.50;22.47;;;3.90;99.90;;;;;;5030583;28;20452;-73
2021/01/10 11:06:35;;;;;;;39.90;24.27;;;4.10;99.90;;;;;;5031515;28;20438;-73
2021/01/10 11:09:01;;;;;;;40.63;21.90;;;4.20;99.90;;;;;;5031638;28;20937;-74
2021/01/10 11:11:34;;;;;;;41.90;24.80;;;4.10;99.90;;;;;;5023766;28;20778;-74
2021/01/10 11:14:00;;;;;;;45.30;25.90;;;4.30;99.90;;;;;;5030991;28;20441;-74
2021/01/10 11:16:30;;;;;;;42.33;24.17;;;4.30;99.90;;;;;;5031303;28;20563;-73
2021/01/10 11:18:55;;;;;;;35.77;22.20;;;4.00;99.90;;;;;;5031223;28;20317;-74
2021/01/10 11:21:32;;;;;;;106.03;59.23;;;3.90;99.90;;;;;;5031146;28;20469;-73
2021/01/10 11:23:58;;;;;;;39.07;24.77;;;4.00;99.90;;;;;;5031190;28;20199;-73
2021/01/10 11:26:24;;;;;;;35.10;23.53;;;4.10;99.90;;;;;;5031281;28;20509;-73
2021/01/10 11:28:50;;;;;;;36.53;23.03;;;4.30;99.90;;;;;;5031200;28;20429;-74
2021/01/10 11:31:17;;;;;;;31.83;22.23;;;4.20;99.90;;;;;;5029481;28;20479;-73
2021/01/10 11:33:43;;;;;;;39.00;23.77;;;4.10;99.90;;;;;;5030817;28;20205;-73
2021/01/10 11:36:09;;;;;;;46.13;25.33;;;4.10;99.90;;;;;;5031051;28;20425;-73
2021/01/10 11:38:35;;;;;;;38.03;22.17;;;4.10;99.90;;;;;;5031166;28;20467;-73
2021/01/10 11:41:07;;;;;;;36.50;22.93;;;4.30;99.90;;;;;;5030948;28;20418;-73
2021/01/10 11:43:33;;;;;;;43.30;22.93;;;4.30;99.90;;;;;;5030942;28;20523;-74
2021/01/10 11:45:59;;;;;;;38.63;21.83;;;4.40;99.90;;;;;;5035028;28;20426;-73
2021/01/10 11:48:25;;;;;;;39.00;23.17;;;4.40;99.90;;;;;;5034905;28;20386;-75
2021/01/10 11:50:50;;;;;;;39.63;21.27;;;4.40;99.90;;;;;;5034881;28;20183;-73
2021/01/10 11:53:16;;;;;;;34.77;20.13;;;4.30;99.90;;;;;;5035014;28;20282;-74
2021/01/10 11:55:41;;;;;;;31.70;20.50;;;4.30;99.90;;;;;;5035262;28;20201;-74
2021/01/10 11:58:07;;;;;;;29.43;18.60;;;4.40;99.90;;;;;;5034841;28;20179;-74
2021/01/10 12:00:32;;;;;;;57.80;34.30;;;4.40;99.90;;;;;;5034587;28;20179;-73
2021/01/10 12:02:58;;;;;;;31.70;18.63;;;4.30;99.90;;;;;;5033657;28;20302;-74
2021/01/10 12:05:24;;;;;;;31.70;20.10;;;4.40;99.90;;;;;;5035003;28;20247;-74
2021/01/10 12:07:49;;;;;;;42.67;20.50;;;4.40;99.90;;;;;;5033845;28;20186;-73
2021/01/10 12:10:15;;;;;;;33.40;19.33;;;4.40;99.90;;;;;;5034676;28;20175;-74
2021/01/10 12:12:41;;;;;;;35.27;18.73;;;4.50;99.90;;;;;;5034452;28;20533;-75
2021/01/10 12:15:07;;;;;;;38.40;19.03;;;4.60;99.90;;;;;;5034571;28;20183;-74
2021/01/10 12:17:32;;;;;;;28.87;18.13;;;4.60;99.90;;;;;;5034631;28;20179;-74
2021/01/10 12:19:58;;;;;;;30.70;18.10;;;4.70;99.90;;;;;;5034538;28;20459;-73
2021/01/10 12:22:23;;;;;;;29.37;17.60;;;4.60;99.90;;;;;;5031918;28;20270;-73
2021/01/10 12:24:49;;;;;;;29.70;18.97;;;4.60;99.90;;;;;;5034114;28;20195;-74
2021/01/10 12:27:14;;;;;;;38.43;17.83;;;4.70;99.90;;;;;;5041203;28;20697;-73
2021/01/10 12:29:40;;;;;;;30.10;17.47;;;4.50;99.90;;;;;;5034051;28;20266;-74
2021/01/10 12:32:06;;;;;;;35.10;18.40;;;4.50;99.90;;;;;;5032689;28;20198;-73
2021/01/10 12:34:31;;;;;;;35.63;20.37;;;4.50;99.90;;;;;;5031532;28;20616;-74
2021/01/10 12:36:58;;;;;;;37.80;19.27;;;4.50;99.90;;;;;;5043900;28;20246;-74
2021/01/10 12:39:24;;;;;;;27.17;16.17;;;4.30;99.90;;;;;;5035083;28;20200;-74
2021/01/10 12:41:50;;;;;;;26.30;15.57;;;4.30;99.90;;;;;;5043980;28;20429;-74
2021/01/10 12:44:15;;;;;;;28.27;16.00;;;4.30;99.90;;;;;;5034016;28;20528;-73